sensor_id;sensor_type;location;lat;lon;timestamp;pressure;altitude;pressure_sealevel;temperature;humidity
76122;BME280;64853;53.200;6.080;2022-11-04T00:01:23;99661.13;;;17.47;57.05
76122;BME280;64853;53.200;6.080;2022-11-04T00:03:51;99656.44;;;17.47;56.92
76122;BME280;64853;53.200;6.080;2022-11-04T00:06:19;99663.09;;;17.46;57.00
76122;BME280;64853;53.200;6.080;2022-11-04T00:08:49;99672.94;;;17.47;56.75
76122;BME280;64853;53.200;6.080;2022-11-04T00:11:16;99681.19;;;17.47;56.80
76122;BME280;64853;53.200;6.080;2022-11-04T00:14:00;99679.28;;;17.48;56.91
76122;BME280;64853;53.200;6.080;2022-11-04T00:16:27;99690.28;;;17.48;56.80
76122;BME280;64853;53.200;6.080;2022-11-04T00:19:11;99691.09;;;17.48;56.74
76122;BME280;64853;53.200;6.080;2022-11-04T00:21:39;99690.28;;;17.48;57.01
76122;BME280;64853;53.200;6.080;2022-11-04T00:24:23;99701.59;;;17.46;57.00
76122;BME280;64853;53.200;6.080;2022-11-04T00:27:07;99705.16;;;17.47;56.76
76122;BME280;64853;53.200;6.080;2022-11-04T00:29:51;99716.16;;;17.47;57.00
76122;BME280;64853;53.200;6.080;2022-11-04T00:32:18;99723.63;;;17.46;57.01
76122;BME280;64853;53.200;6.080;2022-11-04T00:35:02;99716.97;;;17.47;56.85
76122;BME280;64853;53.200;6.080;2022-11-04T00:37:30;99711.78;;;17.45;57.04
76122;BME280;64853;53.200;6.080;2022-11-04T00:39:57;99683.94;;;17.47;57.12
76122;BME280;64853;53.200;6.080;2022-11-04T00:42:23;99688.66;;;17.47;57.13
76122;BME280;64853;53.200;6.080;2022-11-04T00:44:49;99703.22;;;17.47;57.00
76122;BME280;64853;53.200;6.080;2022-11-04T00:47:16;99713.09;;;17.48;56.83
76122;BME280;64853;53.200;6.080;2022-11-04T00:49:42;99724.91;;;17.49;57.13
76122;BME280;64853;53.200;6.080;2022-11-04T00:52:09;99734.81;;;17.50;56.98
76122;BME280;64853;53.200;6.080;2022-11-04T00:54:37;99723.00;;;17.49;56.83
76122;BME280;64853;53.200;6.080;2022-11-04T00:57:03;99744.19;;;17.49;57.08
76122;BME280;64853;53.200;6.080;2022-11-04T00:59:29;99749.38;;;17.50;56.96
76122;BME280;64853;53.200;6.080;2022-11-04T01:01:56;99759.56;;;17.50;57.04
76122;BME280;64853;53.200;6.080;2022-11-04T01:04:22;99768.94;;;17.49;57.07
76122;BME280;64853;53.200;6.080;2022-11-04T01:06:49;99768.63;;;17.50;56.89
76122;BME280;64853;53.200;6.080;2022-11-04T01:09:15;99769.78;;;17.49;57.00
76122;BME280;64853;53.200;6.080;2022-11-04T01:11:43;99773.34;;;17.50;56.98
76122;BME280;64853;53.200;6.080;2022-11-04T01:14:10;99774.16;;;17.50;57.09
76122;BME280;64853;53.200;6.080;2022-11-04T01:16:37;99765.88;;;17.50;57.25
76122;BME280;64853;53.200;6.080;2022-11-04T01:19:04;99772.53;;;17.49;57.04
76122;BME280;64853;53.200;6.080;2022-11-04T01:21:31;99775.28;;;17.49;57.39
76122;BME280;64853;53.200;6.080;2022-11-04T01:23:58;99774.44;;;17.49;57.09
76122;BME280;64853;53.200;6.080;2022-11-04T01:26:26;99769.78;;;17.49;56.76
76122;BME280;64853;53.200;6.080;2022-11-04T01:28:56;99778.84;;;17.50;57.27
76122;BME280;64853;53.200;6.080;2022-11-04T01:31:24;99792.59;;;17.50;56.97
76122;BME280;64853;53.200;6.080;2022-11-04T01:33:52;99803.59;;;17.50;57.19
76122;BME280;64853;53.200;6.080;2022-11-04T01:36:19;99804.72;;;17.49;57.37
76122;BME280;64853;53.200;6.080;2022-11-04T01:38:46;99820.13;;;17.50;57.09
76122;BME280;64853;53.200;6.080;2022-11-04T01:41:16;99822.88;;;17.50;57.17
76122;BME280;64853;53.200;6.080;2022-11-04T01:43:44;99820.13;;;17.50;56.92
76122;BME280;64853;53.200;6.080;2022-11-04T01:46:20;99832.53;;;17.47;57.00
76122;BME280;64853;53.200;6.080;2022-11-04T01:48:47;99841.63;;;17.48;57.39
76122;BME280;64853;53.200;6.080;2022-11-04T01:51:14;99844.38;;;17.48;57.43
76122;BME280;64853;53.200;6.080;2022-11-04T01:53:42;99847.44;;;17.46;57.41
76122;BME280;64853;53.200;6.080;2022-11-04T01:56:11;99850.19;;;17.46;57.28
76122;BME280;64853;53.200;6.080;2022-11-04T01:58:44;99849.88;;;17.48;57.30
76122;BME280;64853;53.200;6.080;2022-11-04T02:01:13;99860.91;;;17.48;57.20
76122;BME280;64853;53.200;6.080;2022-11-04T02:03:44;99863.66;;;17.48;57.54
76122;BME280;64853;53.200;6.080;2022-11-04T02:06:12;99860.91;;;17.48;57.38
76122;BME280;64853;53.200;6.080;2022-11-04T02:08:40;99859.75;;;17.49;57.12
76122;BME280;64853;53.200;6.080;2022-11-04T02:11:06;99863.66;;;17.48;57.26
76122;BME280;64853;53.200;6.080;2022-11-04T02:13:34;99865.56;;;17.47;57.67
76122;BME280;64853;53.200;6.080;2022-11-04T02:16:06;99868.31;;;17.47;57.17
76122;BME280;64853;53.200;6.080;2022-11-04T02:18:48;99877.41;;;17.48;57.16
76122;BME280;64853;53.200;6.080;2022-11-04T02:21:42;99871.91;;;17.48;57.52
76122;BME280;64853;53.200;6.080;2022-11-04T02:24:41;99878.50;;;17.47;57.20
76122;BME280;64853;53.200;6.080;2022-11-04T02:27:24;99877.72;;;17.46;57.33
76122;BME280;64853;53.200;6.080;2022-11-04T02:30:02;99881.25;;;17.47;57.01
76122;BME280;64853;53.200;6.080;2022-11-04T02:32:44;99886.78;;;17.47;57.54
76122;BME280;64853;53.200;6.080;2022-11-04T02:35:20;99881.25;;;17.47;57.22
76122;BME280;64853;53.200;6.080;2022-11-04T02:37:52;99886.78;;;17.47;57.46
76122;BME280;64853;53.200;6.080;2022-11-04T02:40:24;99882.69;;;17.44;57.53
76122;BME280;64853;53.200;6.080;2022-11-04T02:42:56;99892.28;;;17.47;57.38
76122;BME280;64853;53.200;6.080;2022-11-04T02:45:32;99890.63;;;17.45;57.45
76122;BME280;64853;53.200;6.080;2022-11-04T02:48:06;99903.28;;;17.47;57.10
76122;BME280;64853;53.200;6.080;2022-11-04T02:50:40;99903.28;;;17.47;57.28
76122;BME280;64853;53.200;6.080;2022-11-04T02:53:12;99911.53;;;17.47;57.53
76122;BME280;64853;53.200;6.080;2022-11-04T02:55:44;99905.53;;;17.44;57.12
76122;BME280;64853;53.200;6.080;2022-11-04T02:58:14;99912.66;;;17.45;57.57
76122;BME280;64853;53.200;6.080;2022-11-04T03:00:43;99925.28;;;17.47;57.31
76122;BME280;64853;53.200;6.080;2022-11-04T03:03:12;99925.28;;;17.47;57.09
76122;BME280;64853;53.200;6.080;2022-11-04T03:05:43;99929.16;;;17.45;57.32
76122;BME280;64853;53.200;6.080;2022-11-04T03:08:16;99933.53;;;17.47;57.28
76122;BME280;64853;53.200;6.080;2022-11-04T03:10:47;99935.50;;;17.46;57.29
76122;BME280;64853;53.200;6.080;2022-11-04T03:13:18;99940.16;;;17.45;57.17
76122;BME280;64853;53.200;6.080;2022-11-04T03:15:50;99948.13;;;17.47;57.27
76122;BME280;64853;53.200;6.080;2022-11-04T03:18:23;99953.91;;;17.45;57.10
76122;BME280;64853;53.200;6.080;2022-11-04T03:20:57;99962.19;;;17.45;57.38
76122;BME280;64853;53.200;6.080;2022-11-04T03:23:27;99958.63;;;17.45;57.46
76122;BME280;64853;53.200;6.080;2022-11-04T03:25:57;99966.88;;;17.45;57.36
76122;BME280;64853;53.200;6.080;2022-11-04T03:28:32;99978.69;;;17.45;57.38
76122;BME280;64853;53.200;6.080;2022-11-04T03:31:03;99977.88;;;17.45;57.33
76122;BME280;64853;53.200;6.080;2022-11-04T03:33:37;99977.88;;;17.45;57.57
76122;BME280;64853;53.200;6.080;2022-11-04T03:36:06;99989.69;;;17.45;57.24
76122;BME280;64853;53.200;6.080;2022-11-04T03:38:33;99988.06;;;17.44;57.52
76122;BME280;64853;53.200;6.080;2022-11-04T03:41:00;99994.69;;;17.43;57.36
76122;BME280;64853;53.200;6.080;2022-11-04T03:43:28;100004.59;;;17.44;57.30
76122;BME280;64853;53.200;6.080;2022-11-04T03:45:55;100022.72;;;17.45;57.53
76122;BME280;64853;53.200;6.080;2022-11-04T03:48:23;100030.97;;;17.45;57.19
76122;BME280;64853;53.200;6.080;2022-11-04T03:50:49;100034.56;;;17.46;57.42
76122;BME280;64853;53.200;6.080;2022-11-04T03:53:18;100043.91;;;17.45;57.70
76122;BME280;64853;53.200;6.080;2022-11-04T03:55:58;100050.22;;;17.45;57.40
76122;BME280;64853;53.200;6.080;2022-11-04T03:58:34;100055.22;;;17.43;57.27
76122;BME280;64853;53.200;6.080;2022-11-04T04:01:07;100059.63;;;17.44;57.35
76122;BME280;64853;53.200;6.080;2022-11-04T04:03:41;100060.44;;;17.45;57.38
76122;BME280;64853;53.200;6.080;2022-11-04T04:06:14;100060.72;;;17.43;57.47
76122;BME280;64853;53.200;6.080;2022-11-04T04:08:45;100066.22;;;17.43;57.56
76122;BME280;64853;53.200;6.080;2022-11-04T04:11:16;100061.63;;;17.39;57.38
76122;BME280;64853;53.200;6.080;2022-11-04T04:13:50;100069.78;;;17.44;57.31
76122;BME280;64853;53.200;6.080;2022-11-04T04:16:21;100074.50;;;17.43;57.33
76122;BME280;64853;53.200;6.080;2022-11-04T04:18:54;100074.78;;;17.42;57.49
76122;BME280;64853;53.200;6.080;2022-11-04T04:21:25;100083.84;;;17.42;57.24
76122;BME280;64853;53.200;6.080;2022-11-04T04:23:55;100079.19;;;17.43;57.44
76122;BME280;64853;53.200;6.080;2022-11-04T04:26:41;100089.34;;;17.42;57.45
76122;BME280;64853;53.200;6.080;2022-11-04T04:29:28;100088.84;;;17.40;57.31
76122;BME280;64853;53.200;6.080;2022-11-04T04:31:55;100100.66;;;17.41;57.49
76122;BME280;64853;53.200;6.080;2022-11-04T04:34:26;100106.47;;;17.39;57.21
76122;BME280;64853;53.200;6.080;2022-11-04T04:36:57;100108.09;;;17.40;57.24
76122;BME280;64853;53.200;6.080;2022-11-04T04:39:31;100113.59;;;17.40;57.50
76122;BME280;64853;53.200;6.080;2022-11-04T04:42:16;100116.34;;;17.40;57.21
76122;BME280;64853;53.200;6.080;2022-11-04T04:45:02;100128.16;;;17.41;57.40
76122;BME280;64853;53.200;6.080;2022-11-04T04:47:33;100133.16;;;17.39;57.52
76122;BME280;64853;53.200;6.080;2022-11-04T04:50:04;100143.88;;;17.40;57.47
76122;BME280;64853;53.200;6.080;2022-11-04T04:52:33;100145.81;;;17.40;57.33
76122;BME280;64853;53.200;6.080;2022-11-04T04:55:01;100150.47;;;17.39;57.46
76122;BME280;64853;53.200;6.080;2022-11-04T04:57:28;100152.13;;;17.40;57.40
76122;BME280;64853;53.200;6.080;2022-11-04T04:59:54;100151.63;;;17.38;57.20
76122;BME280;64853;53.200;6.080;2022-11-04T05:02:21;100161.50;;;17.39;57.31
76122;BME280;64853;53.200;6.080;2022-11-04T05:04:47;100173.63;;;17.38;57.47
76122;BME280;64853;53.200;6.080;2022-11-04T05:07:15;100173.63;;;17.38;57.39
76122;BME280;64853;53.200;6.080;2022-11-04T05:09:42;100170.03;;;17.38;57.43
76122;BME280;64853;53.200;6.080;2022-11-04T05:12:08;100181.88;;;17.38;57.57
76122;BME280;64853;53.200;6.080;2022-11-04T05:14:35;100185.75;;;17.37;57.50
76122;BME280;64853;53.200;6.080;2022-11-04T05:17:01;100174.72;;;17.37;57.48
76122;BME280;64853;53.200;6.080;2022-11-04T05:19:28;100181.88;;;17.38;57.41
76122;BME280;64853;53.200;6.080;2022-11-04T05:21:54;100179.44;;;17.37;57.14
76122;BME280;64853;53.200;6.080;2022-11-04T05:24:22;100163.50;;;17.34;57.40
76122;BME280;64853;53.200;6.080;2022-11-04T05:26:48;100168.16;;;17.33;57.18
76122;BME280;64853;53.200;6.080;2022-11-04T05:29:15;100179.44;;;17.37;57.24
76122;BME280;64853;53.200;6.080;2022-11-04T05:31:41;100184.94;;;17.37;57.41
76122;BME280;64853;53.200;6.080;2022-11-04T05:34:09;100187.69;;;17.37;57.19
76122;BME280;64853;53.200;6.080;2022-11-04T05:36:36;100187.97;;;17.35;56.94
76122;BME280;64853;53.200;6.080;2022-11-04T05:39:03;100189.06;;;17.34;57.34
76122;BME280;64853;53.200;6.080;2022-11-04T05:41:32;100198.97;;;17.35;57.11
76122;BME280;64853;53.200;6.080;2022-11-04T05:44:00;100200.59;;;17.36;57.31
76122;BME280;64853;53.200;6.080;2022-11-04T05:46:27;100204.47;;;17.35;57.05
76122;BME280;64853;53.200;6.080;2022-11-04T05:48:54;100201.19;;;17.33;57.16
76122;BME280;64853;53.200;6.080;2022-11-04T05:51:24;100207.25;;;17.35;57.43
76122;BME280;64853;53.200;6.080;2022-11-04T05:53:51;100216.31;;;17.36;57.22
76122;BME280;64853;53.200;6.080;2022-11-04T05:56:17;100219.06;;;17.36;57.27
76122;BME280;64853;53.200;6.080;2022-11-04T05:58:45;100218.25;;;17.35;57.24
76122;BME280;64853;53.200;6.080;2022-11-04T06:01:21;100212.19;;;17.33;57.24
76122;BME280;64853;53.200;6.080;2022-11-04T06:03:47;100209.44;;;17.33;57.26
76122;BME280;64853;53.200;6.080;2022-11-04T06:06:14;100217.69;;;17.33;56.96
76122;BME280;64853;53.200;6.080;2022-11-04T06:08:41;100213.03;;;17.34;56.96
76122;BME280;64853;53.200;6.080;2022-11-04T06:11:07;100221.59;;;17.32;57.27
76122;BME280;64853;53.200;6.080;2022-11-04T06:13:33;100229.84;;;17.32;57.16
76122;BME280;64853;53.200;6.080;2022-11-04T06:16:01;100227.09;;;17.32;56.98
76122;BME280;64853;53.200;6.080;2022-11-04T06:18:28;100234.19;;;17.33;57.10
76122;BME280;64853;53.200;6.080;2022-11-04T06:21:06;100247.16;;;17.33;57.38
76122;BME280;64853;53.200;6.080;2022-11-04T06:23:33;100243.59;;;17.32;57.16
76122;BME280;64853;53.200;6.080;2022-11-04T06:25:59;100245.22;;;17.33;57.16
76122;BME280;64853;53.200;6.080;2022-11-04T06:28:26;100254.59;;;17.32;57.14
76122;BME280;64853;53.200;6.080;2022-11-04T06:30:52;100245.22;;;17.33;57.09
76122;BME280;64853;53.200;6.080;2022-11-04T06:33:20;100255.41;;;17.33;56.80
76122;BME280;64853;53.200;6.080;2022-11-04T06:35:46;100249.09;;;17.32;57.19
76122;BME280;64853;53.200;6.080;2022-11-04T06:38:13;100252.94;;;17.31;56.64
76122;BME280;64853;53.200;6.080;2022-11-04T06:40:39;100252.13;;;17.31;56.79
76122;BME280;64853;53.200;6.080;2022-11-04T06:43:06;100251.34;;;17.30;57.11
76122;BME280;64853;53.200;6.080;2022-11-04T06:45:32;100252.94;;;17.31;57.03
76122;BME280;64853;53.200;6.080;2022-11-04T06:47:59;100264.75;;;17.32;57.45
76122;BME280;64853;53.200;6.080;2022-11-04T06:50:26;100262.34;;;17.30;57.49
76122;BME280;64853;53.200;6.080;2022-11-04T06:52:53;100265.91;;;17.31;57.41
76122;BME280;64853;53.200;6.080;2022-11-04T06:55:19;100262.34;;;17.30;57.55
76122;BME280;64853;53.200;6.080;2022-11-04T06:57:46;100267.84;;;17.30;57.57
76122;BME280;64853;53.200;6.080;2022-11-04T07:00:13;100272.22;;;17.31;57.37
76122;BME280;64853;53.200;6.080;2022-11-04T07:02:39;100274.97;;;17.31;57.37
76122;BME280;64853;53.200;6.080;2022-11-04T07:05:07;100273.34;;;17.30;57.79
76122;BME280;64853;53.200;6.080;2022-11-04T07:07:35;100284.34;;;17.30;57.67
76122;BME280;64853;53.200;6.080;2022-11-04T07:10:01;100287.63;;;17.32;57.35
76122;BME280;64853;53.200;6.080;2022-11-04T07:12:28;100286.78;;;17.32;57.29
76122;BME280;64853;53.200;6.080;2022-11-04T07:14:54;100290.38;;;17.32;57.46
76122;BME280;64853;53.200;6.080;2022-11-04T07:17:20;100291.47;;;17.31;57.38
76122;BME280;64853;53.200;6.080;2022-11-04T07:19:47;100302.47;;;17.31;57.38
76122;BME280;64853;53.200;6.080;2022-11-04T07:22:13;100313.47;;;17.31;57.51
76122;BME280;64853;53.200;6.080;2022-11-04T07:24:41;100313.47;;;17.31;57.54
76122;BME280;64853;53.200;6.080;2022-11-04T07:27:08;100326.13;;;17.32;57.39
76122;BME280;64853;53.200;6.080;2022-11-04T07:29:34;100324.78;;;17.30;57.62
76122;BME280;64853;53.200;6.080;2022-11-04T07:32:01;100342.13;;;17.30;57.47
76122;BME280;64853;53.200;6.080;2022-11-04T07:34:27;100352.00;;;17.31;57.57
76122;BME280;64853;53.200;6.080;2022-11-04T07:36:54;100352.00;;;17.31;57.28
76122;BME280;64853;53.200;6.080;2022-11-04T07:39:20;100362.19;;;17.31;57.50
76122;BME280;64853;53.200;6.080;2022-11-04T07:41:48;100371.25;;;17.31;57.22
76122;BME280;64853;53.200;6.080;2022-11-04T07:44:15;100370.97;;;17.33;57.48
76122;BME280;64853;53.200;6.080;2022-11-04T07:46:41;100385.81;;;17.32;57.20
76122;BME280;64853;53.200;6.080;2022-11-04T07:49:08;100379.50;;;17.31;57.35
76122;BME280;64853;53.200;6.080;2022-11-04T07:51:34;100384.19;;;17.31;57.29
76122;BME280;64853;53.200;6.080;2022-11-04T07:54:00;100395.22;;;17.31;57.38
76122;BME280;64853;53.200;6.080;2022-11-04T07:56:27;100409.78;;;17.31;57.30
76122;BME280;64853;53.200;6.080;2022-11-04T07:58:55;100409.78;;;17.31;57.18
76122;BME280;64853;53.200;6.080;2022-11-04T08:01:22;100419.69;;;17.32;57.44
76122;BME280;64853;53.200;6.080;2022-11-04T08:03:50;100424.34;;;17.32;57.42
76122;BME280;64853;53.200;6.080;2022-11-04T08:06:18;100425.47;;;17.31;57.12
76122;BME280;64853;53.200;6.080;2022-11-04T08:08:45;100427.09;;;17.32;57.17
76122;BME280;64853;53.200;6.080;2022-11-04T08:11:14;100427.41;;;17.30;57.26
76122;BME280;64853;53.200;6.080;2022-11-04T08:13:40;100429.03;;;17.31;57.22
76122;BME280;64853;53.200;6.080;2022-11-04T08:16:11;100449.09;;;17.32;57.28
76122;BME280;64853;53.200;6.080;2022-11-04T08:18:39;100438.41;;;17.30;57.28
76122;BME280;64853;53.200;6.080;2022-11-04T08:21:06;100443.09;;;17.30;56.98
76122;BME280;64853;53.200;6.080;2022-11-04T08:23:33;100438.41;;;17.30;57.33
76122;BME280;64853;53.200;6.080;2022-11-04T08:26:00;100423.81;;;17.30;57.24
76122;BME280;64853;53.200;6.080;2022-11-04T08:28:27;100422.50;;;17.27;57.00
76122;BME280;64853;53.200;6.080;2022-11-04T08:30:55;100435.66;;;17.30;57.01
76122;BME280;64853;53.200;6.080;2022-11-04T08:33:24;100441.16;;;17.30;57.07
76122;BME280;64853;53.200;6.080;2022-11-04T08:35:51;100443.91;;;17.30;57.00
76122;BME280;64853;53.200;6.080;2022-11-04T08:38:18;100443.91;;;17.30;57.00
76122;BME280;64853;53.200;6.080;2022-11-04T08:40:44;100432.06;;;17.30;57.18
76122;BME280;64853;53.200;6.080;2022-11-04T08:43:11;100433.72;;;17.31;57.08
76122;BME280;64853;53.200;6.080;2022-11-04T08:45:38;100433.72;;;17.31;57.18
76122;BME280;64853;53.200;6.080;2022-11-04T08:48:05;100438.41;;;17.30;57.14
76122;BME280;64853;53.200;6.080;2022-11-04T08:50:33;100432.91;;;17.30;57.22
76122;BME280;64853;53.200;6.080;2022-11-04T08:52:59;100442.28;;;17.29;56.88
76122;BME280;64853;53.200;6.080;2022-11-04T08:55:27;100442.28;;;17.29;57.19
76122;BME280;64853;53.200;6.080;2022-11-04T08:57:54;100447.78;;;17.29;57.15
76122;BME280;64853;53.200;6.080;2022-11-04T09:00:20;100449.44;;;17.30;56.94
76122;BME280;64853;53.200;6.080;2022-11-04T09:02:46;100452.19;;;17.30;57.08
76122;BME280;64853;53.200;6.080;2022-11-04T09:05:13;100450.53;;;17.29;57.14
76122;BME280;64853;53.200;6.080;2022-11-04T09:07:41;100451.63;;;17.28;57.38
76122;BME280;64853;53.200;6.080;2022-11-04T09:10:09;100453.28;;;17.29;57.15
76122;BME280;64853;53.200;6.080;2022-11-04T09:12:36;100458.78;;;17.29;56.94
76122;BME280;64853;53.200;6.080;2022-11-04T09:15:03;100456.84;;;17.30;56.90
76122;BME280;64853;53.200;6.080;2022-11-04T09:17:30;100452.47;;;17.29;57.06
76122;BME280;64853;53.200;6.080;2022-11-04T09:19:56;100464.28;;;17.29;56.84
76122;BME280;64853;53.200;6.080;2022-11-04T09:22:23;100464.28;;;17.29;57.11
76122;BME280;64853;53.200;6.080;2022-11-04T09:24:51;100471.44;;;17.30;56.97
76122;BME280;64853;53.200;6.080;2022-11-04T09:27:17;100476.94;;;17.30;57.07
76122;BME280;64853;53.200;6.080;2022-11-04T09:29:43;100480.78;;;17.29;57.09
76122;BME280;64853;53.200;6.080;2022-11-04T09:32:10;100480.78;;;17.29;56.94
76122;BME280;64853;53.200;6.080;2022-11-04T09:34:37;100487.09;;;17.30;57.01
76122;BME280;64853;53.200;6.080;2022-11-04T09:37:03;100491.78;;;17.29;56.99
76122;BME280;64853;53.200;6.080;2022-11-04T09:39:29;100490.16;;;17.28;57.20
76122;BME280;64853;53.200;6.080;2022-11-04T09:42:10;100491.78;;;17.29;57.04
76122;BME280;64853;53.200;6.080;2022-11-04T09:44:47;100500.03;;;17.29;57.08
76122;BME280;64853;53.200;6.080;2022-11-04T09:47:15;100506.66;;;17.28;57.02
76122;BME280;64853;53.200;6.080;2022-11-04T09:49:45;100509.41;;;17.28;57.19
76122;BME280;64853;53.200;6.080;2022-11-04T09:52:22;100514.91;;;17.28;57.06
76122;BME280;64853;53.200;6.080;2022-11-04T09:54:53;100523.16;;;17.28;56.95
76122;BME280;64853;53.200;6.080;2022-11-04T09:57:23;100523.16;;;17.28;57.09
76122;BME280;64853;53.200;6.080;2022-11-04T09:59:51;100533.34;;;17.27;57.15
76122;BME280;64853;53.200;6.080;2022-11-04T10:02:28;100534.16;;;17.28;56.95
76122;BME280;64853;53.200;6.080;2022-11-04T10:05:03;100541.59;;;17.27;56.87
76122;BME280;64853;53.200;6.080;2022-11-04T10:07:43;100542.41;;;17.28;57.12
76122;BME280;64853;53.200;6.080;2022-11-04T10:10:16;100534.16;;;17.28;57.06
76122;BME280;64853;53.200;6.080;2022-11-04T10:13:10;100543.53;;;17.27;56.91
76122;BME280;64853;53.200;6.080;2022-11-04T10:16:21;100545.16;;;17.28;56.85
76122;BME280;64853;53.200;6.080;2022-11-04T10:19:04;100546.28;;;17.27;56.91
76122;BME280;64853;53.200;6.080;2022-11-04T10:21:40;100550.97;;;17.26;57.24
76122;BME280;64853;53.200;6.080;2022-11-04T10:24:17;100559.50;;;17.25;56.94
76122;BME280;64853;53.200;6.080;2022-11-04T10:26:46;100562.25;;;17.25;57.01
76122;BME280;64853;53.200;6.080;2022-11-04T10:29:22;100567.19;;;17.28;56.84
76122;BME280;64853;53.200;6.080;2022-11-04T10:31:53;100572.16;;;17.26;56.95
76122;BME280;64853;53.200;6.080;2022-11-04T10:34:31;100576.56;;;17.27;56.89
76122;BME280;64853;53.200;6.080;2022-11-04T10:37:01;100586.44;;;17.28;57.04
76122;BME280;64853;53.200;6.080;2022-11-04T10:39:29;100582.06;;;17.27;56.95
76122;BME280;64853;53.200;6.080;2022-11-04T10:41:57;100594.69;;;17.28;56.95
76122;BME280;64853;53.200;6.080;2022-11-04T10:44:27;100584.81;;;17.27;57.16
76122;BME280;64853;53.200;6.080;2022-11-04T10:47:01;100582.06;;;17.27;57.00
76122;BME280;64853;53.200;6.080;2022-11-04T10:49:48;100586.72;;;17.26;56.83
76122;BME280;64853;53.200;6.080;2022-11-04T10:52:18;100602.94;;;17.28;57.14
76122;BME280;64853;53.200;6.080;2022-11-04T10:54:47;100613.13;;;17.27;57.02
76122;BME280;64853;53.200;6.080;2022-11-04T10:57:17;100630.75;;;17.26;56.97
76122;BME280;64853;53.200;6.080;2022-11-04T10:59:51;100638.72;;;17.28;57.13
76122;BME280;64853;53.200;6.080;2022-11-04T11:02:19;100631.59;;;17.27;56.91
76122;BME280;64853;53.200;6.080;2022-11-04T11:05:14;100630.47;;;17.28;56.93
76122;BME280;64853;53.200;6.080;2022-11-04T11:07:41;100638.47;;;17.24;57.15
76122;BME280;64853;53.200;6.080;2022-11-04T11:10:15;100644.50;;;17.26;56.95
76122;BME280;64853;53.200;6.080;2022-11-04T11:12:42;100658.25;;;17.26;57.10
76122;BME280;64853;53.200;6.080;2022-11-04T11:15:28;100653.59;;;17.27;56.91
76122;BME280;64853;53.200;6.080;2022-11-04T11:17:59;100670.09;;;17.27;57.13
76122;BME280;64853;53.200;6.080;2022-11-04T11:20:28;100670.91;;;17.27;56.95
76122;BME280;64853;53.200;6.080;2022-11-04T11:22:56;100671.72;;;17.28;57.22
76122;BME280;64853;53.200;6.080;2022-11-04T11:25:26;100672.00;;;17.26;57.10
76122;BME280;64853;53.200;6.080;2022-11-04T11:27:55;100672.84;;;17.27;57.00
76122;BME280;64853;53.200;6.080;2022-11-04T11:30:27;100674.75;;;17.26;56.93
76122;BME280;64853;53.200;6.080;2022-11-04T11:32:58;100681.13;;;17.27;56.84
76122;BME280;64853;53.200;6.080;2022-11-04T11:35:29;100671.72;;;17.28;56.86
76122;BME280;64853;53.200;6.080;2022-11-04T11:37:58;100670.63;;;17.29;57.08
76122;BME280;64853;53.200;6.080;2022-11-04T11:40:29;100666.22;;;17.28;57.00
76122;BME280;64853;53.200;6.080;2022-11-04T11:42:58;100666.22;;;17.28;57.17
76122;BME280;64853;53.200;6.080;2022-11-04T11:45:27;100659.09;;;17.27;56.84
76122;BME280;64853;53.200;6.080;2022-11-04T11:47:54;100650.56;;;17.29;56.90
76122;BME280;64853;53.200;6.080;2022-11-04T11:50:23;100642.59;;;17.27;57.06
76122;BME280;64853;53.200;6.080;2022-11-04T11:53:10;100657.69;;;17.30;57.13
76122;BME280;64853;53.200;6.080;2022-11-04T11:55:42;100663.19;;;17.30;56.90
76122;BME280;64853;53.200;6.080;2022-11-04T11:58:14;100662.38;;;17.29;57.13
76122;BME280;64853;53.200;6.080;2022-11-04T12:00:47;100669.53;;;17.30;57.18
76122;BME280;64853;53.200;6.080;2022-11-04T12:03:18;100669.53;;;17.30;57.04
76122;BME280;64853;53.200;6.080;2022-11-04T12:05:53;100673.38;;;17.29;57.09
76122;BME280;64853;53.200;6.080;2022-11-04T12:08:40;100672.56;;;17.29;56.93
76122;BME280;64853;53.200;6.080;2022-11-04T12:11:15;100677.25;;;17.28;56.88
76122;BME280;64853;53.200;6.080;2022-11-04T12:13:47;100677.25;;;17.28;56.86
76122;BME280;64853;53.200;6.080;2022-11-04T12:16:27;100680.28;;;17.26;56.91
76122;BME280;64853;53.200;6.080;2022-11-04T12:19:09;100675.63;;;17.27;56.84
76122;BME280;64853;53.200;6.080;2022-11-04T12:21:46;100686.63;;;17.27;56.87
76122;BME280;64853;53.200;6.080;2022-11-04T12:24:23;100680.28;;;17.26;56.89
76122;BME280;64853;53.200;6.080;2022-11-04T12:26:59;100683.31;;;17.25;56.80
76122;BME280;64853;53.200;6.080;2022-11-04T12:29:38;100683.31;;;17.25;56.75
76122;BME280;64853;53.200;6.080;2022-11-04T12:32:21;100696.25;;;17.24;56.98
76122;BME280;64853;53.200;6.080;2022-11-04T12:35:05;100691.56;;;17.25;57.27
76122;BME280;64853;53.200;6.080;2022-11-04T12:37:42;100699.00;;;17.24;57.09
76122;BME280;64853;53.200;6.080;2022-11-04T12:40:14;100695.97;;;17.26;56.62
76122;BME280;64853;53.200;6.080;2022-11-04T12:43:02;100696.25;;;17.24;56.42
76122;BME280;64853;53.200;6.080;2022-11-04T12:45:43;100703.69;;;17.24;55.31
76122;BME280;64853;53.200;6.080;2022-11-04T12:48:27;100704.22;;;17.26;55.93
76122;BME280;64853;53.200;6.080;2022-11-04T12:51:04;100706.97;;;17.26;56.04
76122;BME280;64853;53.200;6.080;2022-11-04T12:53:51;100700.66;;;17.25;56.33
76122;BME280;64853;53.200;6.080;2022-11-04T12:56:23;100705.31;;;17.25;56.02
76122;BME280;64853;53.200;6.080;2022-11-04T13:02:03;100713.56;;;17.25;56.13
76122;BME280;64853;53.200;6.080;2022-11-04T13:04:39;100716.31;;;17.25;55.90
76122;BME280;64853;53.200;6.080;2022-11-04T13:07:12;100710.81;;;17.25;56.39
76122;BME280;64853;53.200;6.080;2022-11-04T13:09:43;100715.50;;;17.24;56.28
76122;BME280;64853;53.200;6.080;2022-11-04T13:12:12;100715.50;;;17.24;55.97
76122;BME280;64853;53.200;6.080;2022-11-04T13:14:45;100725.41;;;17.25;56.17